Terminal Aerodrome Forecast
Issued by NWS

Home | Current Version | Previous Version | Text Only | Print | Product List | Glossary On
Versions: 1 2 3 4 5 6 7 8 9 10 11 12 13 14 15 16 17 18
000
FTUS46 KMTR 010536
TAFOAK
TAF
KOAK 010536Z 0106/0212 27010KT P6SM FEW010 OVC015
     FM011000 27010KT P6SM OVC008
     FM011600 26010KT P6SM FEW008 BKN015
     FM011900 26010KT P6SM FEW010 FEW150
     FM012100 27015KT P6SM FEW010 FEW150
     FM020300 28012KT P6SM FEW010 BKN015
     FM020600 28010KT P6SM OVC015=

USA.gov is the U.S. government's official web portal to all federal, state and local government web resources and services.